Time;durP1;ratioP1;P1;durP2;ratioP2;P2;SDS_P1;SDS_P2;PMS_P1;PMS_P2;Temp;Humidity;BMP_temperature;BMP_pressure;BME280_temperature;BME280_humidity;BME280_pressure;Samples;Min_cycle;Max_cycle;Signal;HPM_P1;HPM_P2
2023/06/30 00:00:02;;;;;;;6.10;5.20;;;;;;;;;;109775;275;39797;-39
2023/06/30 00:02:36;;;;;;;5.70;5.00;;;;;;;;;;109677;271;175453;-38
2023/06/30 00:05:13;;;;;;;6.50;5.30;;;;;;;;;;109801;275;42118;-37
2023/06/30 00:07:54;;;;;;;5.80;5.00;;;;;;;;;;109777;275;38812;-38
2023/06/30 00:10:31;;;;;;;5.90;5.00;;;;;;;;;;109782;268;39836;-38
2023/06/30 00:13:04;;;;;;;5.90;5.20;;;;;;;;;;109763;275;42767;-37
2023/06/30 00:15:40;;;;;;;6.20;5.60;;;;;;;;;;109770;275;43137;-38
2023/06/30 00:18:14;;;;;;;6.10;5.40;;;;;;;;;;109774;275;38688;-38
2023/06/30 00:20:50;;;;;;;6.30;5.40;;;;;;;;;;109761;275;39442;-38
2023/06/30 00:23:28;;;;;;;6.10;5.50;;;;;;;;;;109784;275;44015;-38
2023/06/30 00:26:08;;;;;;;5.80;5.00;;;;;;;;;;109768;275;42594;-39
2023/06/30 00:28:45;;;;;;;6.00;5.40;;;;;;;;;;109747;275;38777;-38
2023/06/30 00:31:31;;;;;;;5.90;5.10;;;;;;;;;;109110;275;890384;-38
2023/06/30 00:34:07;;;;;;;6.90;4.90;;;;;;;;;;109794;275;42950;-38
2023/06/30 00:36:41;;;;;;;5.70;4.90;;;;;;;;;;109758;275;44470;-38
2023/06/30 00:39:17;;;;;;;6.20;5.10;;;;;;;;;;109764;275;38520;-38
2023/06/30 00:41:51;;;;;;;5.80;5.10;;;;;;;;;;109772;275;40695;-38
2023/06/30 00:44:28;;;;;;;5.70;4.90;;;;;;;;;;109787;268;44011;-37
2023/06/30 00:47:01;;;;;;;5.80;5.10;;;;;;;;;;109801;271;42151;-38
2023/06/30 00:49:37;;;;;;;5.80;4.80;;;;;;;;;;109756;275;39811;-37
2023/06/30 00:52:11;;;;;;;5.90;5.00;;;;;;;;;;109765;275;39696;-38
2023/06/30 00:54:45;;;;;;;6.00;5.00;;;;;;;;;;109777;275;44043;-37
2023/06/30 00:57:20;;;;;;;5.70;5.00;;;;;;;;;;109785;275;42021;-38
2023/06/30 00:59:53;;;;;;;6.30;5.10;;;;;;;;;;109767;275;39838;-37
2023/06/30 01:02:31;;;;;;;6.60;5.00;;;;;;;;;;109788;271;39434;-37
2023/06/30 01:05:24;;;;;;;5.80;5.00;;;;;;;;;;109784;275;42816;-37
2023/06/30 01:08:13;;;;;;;5.90;4.80;;;;;;;;;;109769;275;43137;-37
2023/06/30 01:10:48;;;;;;;6.60;4.80;;;;;;;;;;109753;275;39848;-37
2023/06/30 01:13:26;;;;;;;6.00;4.90;;;;;;;;;;109765;275;39493;-38
2023/06/30 01:16:00;;;;;;;6.20;4.90;;;;;;;;;;109115;268;890514;-38
2023/06/30 01:18:36;;;;;;;6.00;4.80;;;;;;;;;;109680;275;175452;-38
2023/06/30 01:21:12;;;;;;;6.40;5.10;;;;;;;;;;109770;275;38750;-37
2023/06/30 01:23:52;;;;;;;5.20;4.50;;;;;;;;;;109764;275;39752;-37
2023/06/30 01:26:27;;;;;;;6.00;4.90;;;;;;;;;;109789;276;42837;-37
2023/06/30 01:29:03;;;;;;;5.80;4.70;;;;;;;;;;109786;275;43264;-38
2023/06/30 01:31:38;;;;;;;5.80;4.90;;;;;;;;;;109730;275;38687;-38
2023/06/30 01:34:12;;;;;;;5.90;5.00;;;;;;;;;;109785;275;39659;-38
2023/06/30 01:36:48;;;;;;;5.50;4.80;;;;;;;;;;109771;271;42829;-38
2023/06/30 01:39:21;;;;;;;5.90;5.10;;;;;;;;;;109765;275;42195;-38
2023/06/30 01:41:58;;;;;;;6.10;5.10;;;;;;;;;;109752;275;38975;-37
2023/06/30 01:44:35;;;;;;;5.80;4.90;;;;;;;;;;109787;275;39503;-37
2023/06/30 01:47:09;;;;;;;5.40;4.80;;;;;;;;;;109787;267;42642;-38
2023/06/30 01:49:44;;;;;;;5.70;5.00;;;;;;;;;;109792;271;44337;-37
2023/06/30 01:52:20;;;;;;;6.10;5.00;;;;;;;;;;109753;268;38795;-37
2023/06/30 01:54:53;;;;;;;6.00;5.10;;;;;;;;;;109769;271;39635;-38
2023/06/30 01:57:29;;;;;;;6.10;5.20;;;;;;;;;;109761;275;43848;-38
2023/06/30 02:00:05;;;;;;;5.80;5.10;;;;;;;;;;109776;271;43333;-38
2023/06/30 02:02:42;;;;;;;6.20;5.10;;;;;;;;;;109755;275;44357;-38
2023/06/30 02:05:17;;;;;;;5.90;5.10;;;;;;;;;;109762;275;41153;-37
2023/06/30 02:07:50;;;;;;;6.20;4.90;;;;;;;;;;109750;267;44117;-37
2023/06/30 02:10:25;;;;;;;5.90;5.10;;;;;;;;;;109783;275;42153;-38
2023/06/30 02:12:59;;;;;;;5.80;5.00;;;;;;;;;;109771;275;45512;-37
2023/06/30 02:15:32;;;;;;;6.40;5.50;;;;;;;;;;109774;275;39963;-38
2023/06/30 02:18:09;;;;;;;6.90;5.30;;;;;;;;;;109756;271;43028;-38
2023/06/30 02:20:42;;;;;;;6.00;5.40;;;;;;;;;;109768;275;41918;-37
2023/06/30 02:23:16;;;;;;;6.20;4.70;;;;;;;;;;109747;275;45528;-38
2023/06/30 02:25:51;;;;;;;5.40;4.80;;;;;;;;;;109778;275;39774;-38
2023/06/30 02:28:24;;;;;;;5.80;4.90;;;;;;;;;;109780;275;42681;-38
2023/06/30 02:30:59;;;;;;;5.90;5.10;;;;;;;;;;109767;275;43179;-38
2023/06/30 02:33:33;;;;;;;5.80;4.80;;;;;;;;;;109110;271;892259;-38
2023/06/30 02:36:10;;;;;;;5.50;4.60;;;;;;;;;;109788;271;40828;-38
2023/06/30 02:38:44;;;;;;;6.70;4.70;;;;;;;;;;109773;275;42952;-37
2023/06/30 02:41:18;;;;;;;6.60;5.10;;;;;;;;;;109779;275;42115;-37
2023/06/30 02:43:52;;;;;;;5.50;5.00;;;;;;;;;;109764;275;45764;-37
2023/06/30 02:46:26;;;;;;;6.10;4.90;;;;;;;;;;109771;275;39521;-37
2023/06/30 02:49:00;;;;;;;5.70;5.00;;;;;;;;;;109748;271;42704;-37
2023/06/30 02:51:34;;;;;;;5.60;5.00;;;;;;;;;;109783;275;42176;-37
2023/06/30 02:54:08;;;;;;;5.80;5.00;;;;;;;;;;109738;268;45449;-38
2023/06/30 02:56:42;;;;;;;5.50;4.90;;;;;;;;;;109770;275;39683;-37
2023/06/30 02:59:16;;;;;;;6.10;5.20;;;;;;;;;;109780;275;42891;-37
2023/06/30 03:01:53;;;;;;;5.90;5.20;;;;;;;;;;109767;275;42118;-37
2023/06/30 03:04:27;;;;;;;6.20;5.40;;;;;;;;;;109754;275;43627;-37
2023/06/30 03:07:01;;;;;;;5.80;4.90;;;;;;;;;;109790;271;39712;-38
2023/06/30 03:09:35;;;;;;;5.80;5.10;;;;;;;;;;109779;275;42861;-39
2023/06/30 03:12:11;;;;;;;5.30;4.80;;;;;;;;;;109761;275;42298;-39
2023/06/30 03:14:45;;;;;;;5.70;4.80;;;;;;;;;;109752;275;45674;-38
2023/06/30 03:17:21;;;;;;;5.80;5.10;;;;;;;;;;109776;275;40759;-39
2023/06/30 03:19:55;;;;;;;5.70;4.80;;;;;;;;;;109792;275;42969;-38
2023/06/30 03:22:29;;;;;;;5.70;5.20;;;;;;;;;;109785;275;41873;-39
2023/06/30 03:25:04;;;;;;;6.10;4.90;;;;;;;;;;109761;280;45244;-38
2023/06/30 03:27:38;;;;;;;6.20;4.80;;;;;;;;;;109797;276;39678;-38
2023/06/30 03:30:16;;;;;;;5.80;4.50;;;;;;;;;;109810;268;43023;-38
2023/06/30 03:32:53;;;;;;;5.90;4.60;;;;;;;;;;109786;275;42242;-39
2023/06/30 03:35:27;;;;;;;5.80;4.80;;;;;;;;;;109764;268;39788;-38
2023/06/30 03:38:01;;;;;;;6.10;4.90;;;;;;;;;;109789;275;39842;-38
2023/06/30 03:40:35;;;;;;;6.80;4.80;;;;;;;;;;109808;275;44012;-38
2023/06/30 03:43:10;;;;;;;6.60;5.00;;;;;;;;;;109771;273;43254;-39
2023/06/30 03:45:43;;;;;;;5.60;4.70;;;;;;;;;;109779;275;46144;-39
2023/06/30 03:48:21;;;;;;;6.10;4.80;;;;;;;;;;109777;275;40130;-38
2023/06/30 03:50:57;;;;;;;6.30;5.00;;;;;;;;;;109764;275;43335;-38
2023/06/30 03:53:33;;;;;;;7.30;5.10;;;;;;;;;;109740;271;42110;-38
2023/06/30 03:56:08;;;;;;;6.20;5.20;;;;;;;;;;109749;275;38771;-38
2023/06/30 03:58:44;;;;;;;6.30;5.30;;;;;;;;;;109785;271;39736;-38
2023/06/30 04:01:20;;;;;;;6.40;5.20;;;;;;;;;;109781;275;42695;-38
2023/06/30 04:03:55;;;;;;;6.30;5.20;;;;;;;;;;109796;275;42184;-38
2023/06/30 04:06:33;;;;;;;6.50;5.10;;;;;;;;;;109788;275;39971;-38
2023/06/30 04:09:07;;;;;;;6.30;5.20;;;;;;;;;;109784;276;40029;-38
2023/06/30 04:11:40;;;;;;;6.40;5.20;;;;;;;;;;109791;271;42943;-38
2023/06/30 04:14:14;;;;;;;7.70;5.60;;;;;;;;;;109747;276;42279;-37
2023/06/30 04:16:49;;;;;;;7.20;5.60;;;;;;;;;;109755;279;38796;-37
2023/06/30 04:19:22;;;;;;;7.20;5.50;;;;;;;;;;109786;271;39704;-37
2023/06/30 04:21:56;;;;;;;6.80;5.70;;;;;;;;;;109779;275;44019;-37
2023/06/30 04:24:30;;;;;;;7.60;5.70;;;;;;;;;;109776;275;42167;-37
2023/06/30 04:27:05;;;;;;;7.20;6.20;;;;;;;;;;109754;275;39924;-37
2023/06/30 04:29:39;;;;;;;6.90;6.10;;;;;;;;;;109761;275;39684;-37
2023/06/30 04:32:12;;;;;;;9.30;6.60;;;;;;;;;;109778;271;42609;-37
2023/06/30 04:34:46;;;;;;;9.10;6.70;;;;;;;;;;109114;276;891544;-37
2023/06/30 04:37:23;;;;;;;8.00;6.30;;;;;;;;;;109792;275;38890;-37
2023/06/30 04:39:57;;;;;;;7.60;6.00;;;;;;;;;;109765;268;39819;-37
2023/06/30 04:42:32;;;;;;;8.20;6.60;;;;;;;;;;109754;275;43028;-38
2023/06/30 04:45:07;;;;;;;8.20;6.60;;;;;;;;;;109745;275;43396;-38
2023/06/30 04:47:41;;;;;;;9.90;6.50;;;;;;;;;;109791;271;38533;-38
2023/06/30 04:50:15;;;;;;;8.50;6.60;;;;;;;;;;108841;275;1229701;-38
2023/06/30 04:52:48;;;;;;;8.10;6.90;;;;;;;;;;109791;275;44010;-38
2023/06/30 04:55:22;;;;;;;8.30;6.60;;;;;;;;;;109656;275;174992;-38
2023/06/30 04:57:56;;;;;;;8.20;6.40;;;;;;;;;;109785;269;38743;-38
2023/06/30 05:00:30;;;;;;;7.90;6.10;;;;;;;;;;109798;275;40708;-38
2023/06/30 05:03:04;;;;;;;8.00;6.00;;;;;;;;;;109768;275;42604;-38
2023/06/30 05:05:38;;;;;;;7.50;6.00;;;;;;;;;;109759;268;42298;-38
2023/06/30 05:08:11;;;;;;;7.60;6.10;;;;;;;;;;109794;271;38567;-38
2023/06/30 05:10:46;;;;;;;7.60;5.90;;;;;;;;;;109774;275;39809;-37
2023/06/30 05:13:22;;;;;;;8.40;6.40;;;;;;;;;;109787;271;44009;-38
2023/06/30 05:15:55;;;;;;;9.10;6.10;;;;;;;;;;109760;268;44268;-37
2023/06/30 05:18:29;;;;;;;7.30;5.90;;;;;;;;;;109782;275;40779;-37
2023/06/30 05:21:04;;;;;;;6.90;6.00;;;;;;;;;;109772;268;40727;-37
2023/06/30 05:23:37;;;;;;;6.20;5.60;;;;;;;;;;109744;275;42828;-37
2023/06/30 05:26:14;;;;;;;7.50;5.50;;;;;;;;;;109774;275;42146;-38
2023/06/30 05:28:48;;;;;;;6.60;5.30;;;;;;;;;;109781;275;38973;-38
2023/06/30 05:31:38;;;;;;;6.50;5.50;;;;;;;;;;109780;275;39699;-38
2023/06/30 05:34:15;;;;;;;7.30;5.90;;;;;;;;;;109761;275;43996;-38
2023/06/30 05:36:51;;;;;;;8.30;6.00;;;;;;;;;;109754;275;42089;-37
2023/06/30 05:39:25;;;;;;;8.30;6.10;;;;;;;;;;109768;271;38723;-37
2023/06/30 05:41:59;;;;;;;7.70;6.10;;;;;;;;;;109777;275;39924;-38
2023/06/30 05:44:33;;;;;;;7.40;5.90;;;;;;;;;;109765;275;42623;-37
2023/06/30 05:47:08;;;;;;;6.90;5.80;;;;;;;;;;109767;271;42365;-38
2023/06/30 05:49:41;;;;;;;7.80;6.20;;;;;;;;;;109784;275;38770;-38
2023/06/30 05:52:16;;;;;;;6.80;5.70;;;;;;;;;;109756;268;40991;-38
2023/06/30 05:54:50;;;;;;;7.90;5.40;;;;;;;;;;109765;275;42830;-38
2023/06/30 05:57:24;;;;;;;7.80;5.40;;;;;;;;;;109764;275;42128;-38
2023/06/30 05:59:58;;;;;;;6.50;5.30;;;;;;;;;;109759;275;38784;-38
2023/06/30 06:02:33;;;;;;;6.80;5.50;;;;;;;;;;109775;275;39992;-38
2023/06/30 06:05:09;;;;;;;6.70;5.30;;;;;;;;;;109800;275;43139;-38
2023/06/30 06:07:43;;;;;;;6.80;5.20;;;;;;;;;;109741;275;41087;-38
2023/06/30 06:10:17;;;;;;;6.70;5.50;;;;;;;;;;109766;275;39892;-37
2023/06/30 06:12:56;;;;;;;7.10;5.60;;;;;;;;;;109756;275;39477;-37
2023/06/30 06:15:31;;;;;;;6.80;5.80;;;;;;;;;;109785;275;42882;-37
2023/06/30 06:18:05;;;;;;;7.30;5.50;;;;;;;;;;109769;275;42145;-37
2023/06/30 06:20:39;;;;;;;6.90;5.50;;;;;;;;;;109760;275;38575;-37
2023/06/30 06:23:13;;;;;;;6.10;5.30;;;;;;;;;;109767;275;39718;-38
2023/06/30 06:25:47;;;;;;;6.50;5.40;;;;;;;;;;109758;275;43295;-38
2023/06/30 06:28:20;;;;;;;6.90;5.50;;;;;;;;;;109699;275;43621;-38
2023/06/30 06:30:55;;;;;;;6.80;5.00;;;;;;;;;;109758;275;38733;-38
2023/06/30 06:33:31;;;;;;;6.60;5.40;;;;;;;;;;109786;275;39677;-38
2023/06/30 06:36:05;;;;;;;6.90;5.50;;;;;;;;;;109768;275;42705;-38
2023/06/30 06:38:39;;;;;;;6.40;5.30;;;;;;;;;;109787;275;42213;-39
2023/06/30 06:41:13;;;;;;;7.00;5.30;;;;;;;;;;109773;268;38889;-39
2023/06/30 06:43:47;;;;;;;6.50;5.00;;;;;;;;;;109793;275;39662;-39
2023/06/30 06:46:21;;;;;;;6.20;4.80;;;;;;;;;;109778;275;43744;-38
2023/06/30 06:48:57;;;;;;;6.90;5.20;;;;;;;;;;109775;271;42111;-39
2023/06/30 06:51:34;;;;;;;6.70;5.20;;;;;;;;;;109775;275;39062;-38
2023/06/30 06:54:08;;;;;;;6.10;5.20;;;;;;;;;;109769;271;39877;-37
2023/06/30 06:56:45;;;;;;;7.20;4.90;;;;;;;;;;109752;275;42785;-38
2023/06/30 06:59:20;;;;;;;7.10;5.20;;;;;;;;;;109810;275;42252;-38
2023/06/30 07:01:54;;;;;;;5.50;4.60;;;;;;;;;;109772;272;39040;-38
2023/06/30 07:04:28;;;;;;;6.30;4.70;;;;;;;;;;109796;275;40731;-38
2023/06/30 07:07:09;;;;;;;6.40;4.60;;;;;;;;;;109752;271;42618;-39
2023/06/30 07:09:43;;;;;;;6.00;4.70;;;;;;;;;;109752;271;42134;-39
2023/06/30 07:12:17;;;;;;;5.90;4.60;;;;;;;;;;109748;275;40115;-41
2023/06/30 07:14:51;;;;;;;7.40;4.90;;;;;;;;;;109769;271;40748;-41
2023/06/30 07:17:28;;;;;;;6.70;5.00;;;;;;;;;;109770;279;42991;-39
2023/06/30 07:20:15;;;;;;;6.00;4.40;;;;;;;;;;109745;271;49319;-38
2023/06/30 07:22:49;;;;;;;6.90;4.40;;;;;;;;;;109775;275;38569;-38
2023/06/30 07:25:26;;;;;;;7.00;5.20;;;;;;;;;;109788;275;39400;-39
2023/06/30 07:28:02;;;;;;;7.30;5.60;;;;;;;;;;109736;271;42981;-39
2023/06/30 07:30:37;;;;;;;9.70;5.50;;;;;;;;;;109767;275;42127;-40
2023/06/30 07:33:13;;;;;;;6.30;5.00;;;;;;;;;;109765;269;38779;-42
2023/06/30 07:35:47;;;;;;;6.50;5.00;;;;;;;;;;109790;268;39720;-39
2023/06/30 07:38:21;;;;;;;6.50;4.60;;;;;;;;;;109752;268;42844;-38
2023/06/30 07:40:55;;;;;;;6.50;4.60;;;;;;;;;;109765;268;42170;-36
2023/06/30 07:43:31;;;;;;;6.00;4.50;;;;;;;;;;109643;275;174989;-37
2023/06/30 07:46:05;;;;;;;5.60;4.40;;;;;;;;;;109778;271;40833;-40
2023/06/30 07:48:43;;;;;;;6.40;4.70;;;;;;;;;;109759;275;42839;-40
2023/06/30 07:51:21;;;;;;;6.20;4.70;;;;;;;;;;99439;268;3010825;-40
2023/06/30 07:53:56;;;;;;;7.30;4.80;;;;;;;;;;83502;275;3030304;-40
2023/06/30 07:56:33;;;;;;;6.40;4.70;;;;;;;;;;84243;271;3011277;-40
2023/06/30 07:59:08;;;;;;;7.00;4.80;;;;;;;;;;83466;275;3031623;-40
2023/06/30 08:01:45;;;;;;;6.90;4.80;;;;;;;;;;83485;275;3028596;-38
2023/06/30 08:04:21;;;;;;;5.70;4.50;;;;;;;;;;84245;271;3011255;-37
2023/06/30 08:06:57;;;;;;;7.20;4.50;;;;;;;;;;83512;275;3027278;-37
2023/06/30 08:09:34;;;;;;;7.30;4.40;;;;;;;;;;83495;275;3030355;-37
2023/06/30 08:12:13;;;;;;;7.10;5.00;;;;;;;;;;84244;275;3011030;-37
2023/06/30 08:14:48;;;;;;;6.70;4.70;;;;;;;;;;83450;276;3031230;-40
2023/06/30 08:17:25;;;;;;;6.40;4.50;;;;;;;;;;83480;275;3028573;-41
2023/06/30 08:20:17;;;;;;;10.90;4.70;;;;;;;;;;83446;275;3027107;-40
2023/06/30 08:22:55;;;;;;;6.50;4.40;;;;;;;;;;83486;275;3030680;-39
2023/06/30 08:25:31;;;;;;;6.20;4.00;;;;;;;;;;84241;275;3011276;-39
2023/06/30 08:28:09;;;;;;;6.70;4.20;;;;;;;;;;84239;275;3011142;-40
2023/06/30 08:30:46;;;;;;;5.40;3.60;;;;;;;;;;83476;268;3030999;-40
2023/06/30 08:33:30;;;;;;;6.10;3.90;;;;;;;;;;83458;272;3028498;-39
2023/06/30 08:36:12;;;;;;;6.50;4.40;;;;;;;;;;83518;277;3027405;-39
2023/06/30 08:38:47;;;;;;;6.30;4.20;;;;;;;;;;83463;277;3031655;-39
2023/06/30 08:41:27;;;;;;;5.70;4.30;;;;;;;;;;83480;275;3031439;-39
2023/06/30 08:44:03;;;;;;;6.10;4.20;;;;;;;;;;83496;273;3027961;-39
2023/06/30 08:46:38;;;;;;;6.20;4.30;;;;;;;;;;83488;275;3027626;-39
2023/06/30 08:49:15;;;;;;;6.20;4.00;;;;;;;;;;83498;275;3031447;-39
2023/06/30 08:51:52;;;;;;;5.50;3.90;;;;;;;;;;83485;275;3037777;-39
2023/06/30 08:54:31;;;;;;;5.90;3.90;;;;;;;;;;83492;264;3028789;-39
2023/06/30 08:57:07;;;;;;;5.00;3.80;;;;;;;;;;83493;275;3027637;-39
2023/06/30 08:59:42;;;;;;;7.40;4.50;;;;;;;;;;83477;275;3030674;-40
2023/06/30 09:02:18;;;;;;;12.50;5.70;;;;;;;;;;83508;271;3036327;-40
2023/06/30 09:04:58;;;;;;;11.00;4.80;;;;;;;;;;83473;275;3028025;-39
2023/06/30 09:07:43;;;;;;;10.00;4.60;;;;;;;;;;83495;275;3027247;-40
2023/06/30 09:10:18;;;;;;;13.00;4.80;;;;;;;;;;83463;275;3031519;-38
2023/06/30 09:12:58;;;;;;;10.80;4.50;;;;;;;;;;83497;268;3031093;-38
2023/06/30 09:15:34;;;;;;;9.90;4.70;;;;;;;;;;83488;268;3028221;-38
2023/06/30 09:18:16;;;;;;;7.00;4.60;;;;;;;;;;83497;271;3027277;-38
2023/06/30 09:20:53;;;;;;;7.60;4.20;;;;;;;;;;83495;275;3031003;-38
2023/06/30 09:23:29;;;;;;;6.40;4.30;;;;;;;;;;83467;275;3031090;-38
2023/06/30 09:26:14;;;;;;;6.30;4.00;;;;;;;;;;83486;271;3029231;-38
2023/06/30 09:28:49;;;;;;;6.80;4.30;;;;;;;;;;83486;275;3027195;-41
2023/06/30 09:31:32;;;;;;;5.20;4.00;;;;;;;;;;84223;271;3011297;-40
2023/06/30 09:34:19;;;;;;;5.60;3.80;;;;;;;;;;83505;268;3030728;-40
2023/06/30 09:36:55;;;;;;;5.20;3.50;;;;;;;;;;83497;275;3031691;-39
2023/06/30 09:39:32;;;;;;;5.90;3.60;;;;;;;;;;83491;275;3028507;-43
2023/06/30 09:42:19;;;;;;;6.10;3.80;;;;;;;;;;83473;275;3027922;-41
2023/06/30 09:44:57;;;;;;;5.30;3.60;;;;;;;;;;83491;275;3031976;-38
2023/06/30 09:47:32;;;;;;;4.80;3.50;;;;;;;;;;83480;275;3031060;-39
2023/06/30 09:50:17;;;;;;;5.30;3.80;;;;;;;;;;83468;280;3029249;-39
2023/06/30 09:52:52;;;;;;;5.80;3.60;;;;;;;;;;83488;271;3027656;-40
2023/06/30 09:55:28;;;;;;;5.60;3.80;;;;;;;;;;83465;275;3031153;-38
2023/06/30 09:58:04;;;;;;;5.70;3.60;;;;;;;;;;84235;271;3010942;-40
2023/06/30 10:00:42;;;;;;;5.10;3.40;;;;;;;;;;84268;275;3011087;-38
2023/06/30 10:03:21;;;;;;;4.90;3.40;;;;;;;;;;83455;269;3031450;-36
2023/06/30 10:05:56;;;;;;;5.30;3.50;;;;;;;;;;83551;269;3028452;-37
2023/06/30 10:08:35;;;;;;;4.60;3.20;;;;;;;;;;83504;275;3027122;-36
2023/06/30 10:11:11;;;;;;;4.90;3.90;;;;;;;;;;83507;268;3030628;-37
2023/06/30 10:13:48;;;;;;;4.90;3.40;;;;;;;;;;83516;271;3038216;-39
2023/06/30 10:16:25;;;;;;;5.60;3.30;;;;;;;;;;83512;268;3028311;-38
2023/06/30 10:19:05;;;;;;;5.10;3.60;;;;;;;;;;83517;275;3027367;-38
2023/06/30 10:21:39;;;;;;;5.40;3.30;;;;;;;;;;83511;276;3031151;-37
2023/06/30 10:24:17;;;;;;;4.70;3.00;;;;;;;;;;83487;271;3037198;-38
2023/06/30 10:26:55;;;;;;;5.00;3.30;;;;;;;;;;83482;271;3029396;-38
2023/06/30 10:29:32;;;;;;;4.70;3.30;;;;;;;;;;83497;275;3028071;-37
2023/06/30 10:32:13;;;;;;;6.90;3.50;;;;;;;;;;83477;275;3030578;-38
2023/06/30 10:34:49;;;;;;;5.30;3.00;;;;;;;;;;83492;275;3031243;-38
2023/06/30 10:37:27;;;;;;;5.20;3.20;;;;;;;;;;83479;275;3028800;-37
2023/06/30 10:40:23;;;;;;;4.80;3.10;;;;;;;;;;83479;275;3027141;-40
2023/06/30 10:42:58;;;;;;;;;;;;;;;;;;83520;271;3030824;-37
2023/06/30 10:45:59;;;;;;;5.10;3.10;;;;;;;;;;84810;275;3011388;-38
2023/06/30 10:48:37;;;;;;;5.20;3.30;;;;;;;;;;83483;271;3028935;-37
2023/06/30 10:51:15;;;;;;;5.30;3.00;;;;;;;;;;83502;275;3027714;-38
2023/06/30 10:53:55;;;;;;;5.00;3.20;;;;;;;;;;83475;275;3031579;-38
2023/06/30 10:56:32;;;;;;;5.30;3.20;;;;;;;;;;83478;271;3031557;-38
2023/06/30 10:59:07;;;;;;;4.70;3.00;;;;;;;;;;83473;275;3028813;-38
2023/06/30 11:02:25;;;;;;;5.70;3.00;;;;;;;;;;83449;275;3027295;-38
2023/06/30 11:05:30;;;;;;;5.70;3.20;;;;;;;;;;83499;275;3036575;-37
2023/06/30 11:08:24;;;;;;;5.40;2.90;;;;;;;;;;83487;275;3031142;-37
2023/06/30 11:11:08;;;;;;;4.00;2.70;;;;;;;;;;83504;268;3027972;-36
2023/06/30 11:13:45;;;;;;;4.90;3.00;;;;;;;;;;83482;275;3027025;-39
2023/06/30 11:16:20;;;;;;;5.40;2.90;;;;;;;;;;83480;280;3030382;-39
2023/06/30 11:19:05;;;;;;;5.20;2.80;;;;;;;;;;84239;275;3011378;-40
2023/06/30 11:21:45;;;;;;;4.80;2.90;;;;;;;;;;83528;275;3031817;-40
2023/06/30 11:24:20;;;;;;;4.50;2.70;;;;;;;;;;83454;275;3029060;-37
2023/06/30 11:26:56;;;;;;;4.80;3.00;;;;;;;;;;84237;276;3011051;-38
2023/06/30 11:29:32;;;;;;;4.30;2.70;;;;;;;;;;84238;276;3011596;-40
2023/06/30 11:32:13;;;;;;;5.60;2.60;;;;;;;;;;83482;275;3027176;-40
2023/06/30 11:34:49;;;;;;;4.50;2.70;;;;;;;;;;83436;275;3030642;-37
2023/06/30 11:37:27;;;;;;;5.40;2.80;;;;;;;;;;83472;275;3031731;-38
2023/06/30 11:40:03;;;;;;;4.80;2.80;;;;;;;;;;83488;276;3030821;-39
2023/06/30 11:42:44;;;;;;;4.90;2.70;;;;;;;;;;83509;275;3027045;-38
2023/06/30 11:45:20;;;;;;;4.10;2.50;;;;;;;;;;83481;275;3031907;-39
2023/06/30 11:47:59;;;;;;;5.30;2.70;;;;;;;;;;83505;276;3032092;-38
2023/06/30 11:50:34;;;;;;;4.50;2.80;;;;;;;;;;83492;275;3028780;-37
2023/06/30 11:53:14;;;;;;;4.30;2.50;;;;;;;;;;83517;267;3027176;-38
2023/06/30 11:55:55;;;;;;;3.90;2.60;;;;;;;;;;83509;272;3031867;-39
2023/06/30 11:58:38;;;;;;;5.00;2.70;;;;;;;;;;83447;273;3031572;-40
2023/06/30 12:01:19;;;;;;;4.00;2.80;;;;;;;;;;83462;268;3029586;-38
2023/06/30 12:04:38;;;;;;;5.10;2.80;;;;;;;;;;83543;275;3027582;-38
2023/06/30 12:07:16;;;;;;;4.30;2.90;;;;;;;;;;83492;268;3031118;-39
2023/06/30 12:10:05;;;;;;;4.30;2.80;;;;;;;;;;83477;275;3031312;-39
2023/06/30 12:12:44;;;;;;;5.20;2.70;;;;;;;;;;83492;275;3028208;-39
2023/06/30 12:15:31;;;;;;;4.40;3.00;;;;;;;;;;83500;275;3027215;-39
2023/06/30 12:18:11;;;;;;;4.50;3.20;;;;;;;;;;83491;275;3036046;-39
2023/06/30 12:20:46;;;;;;;4.70;2.90;;;;;;;;;;83489;275;3031528;-39
2023/06/30 12:23:30;;;;;;;4.90;2.90;;;;;;;;;;84224;275;3011036;-39
2023/06/30 12:26:12;;;;;;;4.30;3.10;;;;;;;;;;83481;276;3029095;-39
2023/06/30 12:28:50;;;;;;;4.80;3.10;;;;;;;;;;83495;275;3027846;-39
2023/06/30 12:31:28;;;;;;;4.60;3.40;;;;;;;;;;83495;275;3030673;-39
2023/06/30 12:34:03;;;;;;;5.00;3.20;;;;;;;;;;83535;275;3031112;-39
2023/06/30 12:36:39;;;;;;;5.30;3.10;;;;;;;;;;84264;275;3011011;-39
2023/06/30 12:39:20;;;;;;;4.90;3.00;;;;;;;;;;84254;275;3010982;-39
2023/06/30 12:41:59;;;;;;;4.10;3.00;;;;;;;;;;83495;275;3028029;-39
2023/06/30 12:44:35;;;;;;;4.10;3.00;;;;;;;;;;84237;276;3011041;-39
2023/06/30 12:47:11;;;;;;;4.70;3.20;;;;;;;;;;84214;275;3011371;-39
2023/06/30 12:49:51;;;;;;;4.50;3.20;;;;;;;;;;82675;271;3027044;-39
2023/06/30 12:52:29;;;;;;;4.30;3.00;;;;;;;;;;83491;275;3031467;-38
2023/06/30 12:55:09;;;;;;;4.70;3.00;;;;;;;;;;83488;275;3032304;-38
2023/06/30 12:57:48;;;;;;;4.40;3.10;;;;;;;;;;83470;275;3028589;-38
2023/06/30 13:00:28;;;;;;;4.70;3.30;;;;;;;;;;83475;275;3027728;-38
2023/06/30 13:03:05;;;;;;;4.30;2.80;;;;;;;;;;83480;271;3031250;-38
2023/06/30 13:05:41;;;;;;;4.10;2.90;;;;;;;;;;83519;272;3031470;-38
2023/06/30 13:08:16;;;;;;;4.40;2.80;;;;;;;;;;83494;275;3027853;-38
2023/06/30 13:10:52;;;;;;;5.00;2.90;;;;;;;;;;84225;275;3011099;-38
2023/06/30 13:13:30;;;;;;;4.60;3.10;;;;;;;;;;84230;275;3011945;-39
2023/06/30 13:16:07;;;;;;;4.10;2.80;;;;;;;;;;83505;275;3027566;-38
2023/06/30 13:18:44;;;;;;;4.60;2.80;;;;;;;;;;83497;268;3030499;-38
2023/06/30 13:21:21;;;;;;;4.00;2.70;;;;;;;;;;84250;280;3011052;-38
2023/06/30 13:23:58;;;;;;;4.40;3.00;;;;;;;;;;83457;275;3031835;-39
2023/06/30 13:26:37;;;;;;;4.00;2.80;;;;;;;;;;83484;275;3028811;-38
2023/06/30 13:29:14;;;;;;;4.30;2.90;;;;;;;;;;83477;275;3027109;-39
2023/06/30 13:31:53;;;;;;;3.90;2.70;;;;;;;;;;83469;275;3030909;-38
2023/06/30 13:34:28;;;;;;;4.10;2.90;;;;;;;;;;83487;271;3032639;-38
2023/06/30 13:37:05;;;;;;;4.30;2.80;;;;;;;;;;83491;271;3028845;-39
2023/06/30 13:39:42;;;;;;;4.30;2.70;;;;;;;;;;83479;275;3027050;-40
2023/06/30 13:42:17;;;;;;;4.00;2.80;;;;;;;;;;83484;269;3031095;-39
2023/06/30 13:44:53;;;;;;;4.40;2.90;;;;;;;;;;83469;275;3031627;-40
2023/06/30 13:47:31;;;;;;;4.10;2.80;;;;;;;;;;84240;275;3011201;-40
2023/06/30 13:50:07;;;;;;;4.50;2.80;;;;;;;;;;83473;268;3027908;-39
2023/06/30 13:52:44;;;;;;;4.10;2.90;;;;;;;;;;83498;275;3026796;-39
2023/06/30 13:55:27;;;;;;;4.00;2.70;;;;;;;;;;83477;281;3031287;-39
2023/06/30 13:58:07;;;;;;;4.60;3.10;;;;;;;;;;83490;273;3031345;-39
2023/06/30 14:00:46;;;;;;;4.50;2.70;;;;;;;;;;83488;275;3036730;-39
2023/06/30 14:03:30;;;;;;;3.90;2.70;;;;;;;;;;83502;271;3027604;-39
2023/06/30 14:06:04;;;;;;;4.50;2.90;;;;;;;;;;83532;275;3031858;-39
2023/06/30 14:08:40;;;;;;;4.30;3.00;;;;;;;;;;84244;275;3011102;-38
2023/06/30 14:11:20;;;;;;;4.30;2.70;;;;;;;;;;83501;275;3031301;-39
2023/06/30 14:13:57;;;;;;;4.20;2.80;;;;;;;;;;83537;275;3029318;-39
2023/06/30 14:16:40;;;;;;;4.00;2.80;;;;;;;;;;83492;268;3027107;-39
2023/06/30 14:19:17;;;;;;;4.30;3.10;;;;;;;;;;83479;275;3030671;-39
2023/06/30 14:21:55;;;;;;;4.10;2.90;;;;;;;;;;83519;268;3031507;-39
2023/06/30 14:24:31;;;;;;;4.80;3.40;;;;;;;;;;84214;275;3010966;-39
2023/06/30 14:27:10;;;;;;;4.80;3.20;;;;;;;;;;84246;275;3011173;-39
2023/06/30 14:29:48;;;;;;;4.40;3.00;;;;;;;;;;83466;275;3029543;-39
2023/06/30 14:32:25;;;;;;;4.40;3.30;;;;;;;;;;83486;275;3027241;-39
2023/06/30 14:35:00;;;;;;;4.40;3.40;;;;;;;;;;83477;275;3030464;-39
2023/06/30 14:37:37;;;;;;;4.20;3.00;;;;;;;;;;83469;275;3032976;-39
2023/06/30 14:40:16;;;;;;;4.90;3.20;;;;;;;;;;84220;271;3011398;-39
2023/06/30 14:42:52;;;;;;;4.50;3.40;;;;;;;;;;83494;275;3028068;-38
2023/06/30 14:45:29;;;;;;;4.50;3.00;;;;;;;;;;83516;275;3026936;-39
2023/06/30 14:48:07;;;;;;;4.20;3.00;;;;;;;;;;83506;273;3030644;-38
2023/06/30 14:50:44;;;;;;;4.70;3.40;;;;;;;;;;83464;275;3031096;-38
2023/06/30 14:53:19;;;;;;;4.10;3.00;;;;;;;;;;83517;271;3028735;-38
2023/06/30 14:55:57;;;;;;;4.20;3.30;;;;;;;;;;83491;275;3028735;-38
2023/06/30 14:58:33;;;;;;;4.40;3.40;;;;;;;;;;84267;271;3011397;-38
2023/06/30 15:01:09;;;;;;;4.30;3.10;;;;;;;;;;84210;275;3010920;-37
2023/06/30 15:03:49;;;;;;;4.40;3.10;;;;;;;;;;84213;275;3011586;-37
2023/06/30 15:06:24;;;;;;;4.20;3.00;;;;;;;;;;83474;275;3031025;-37
2023/06/30 15:09:02;;;;;;;4.90;3.10;;;;;;;;;;84239;275;3010948;-38
2023/06/30 15:11:37;;;;;;;4.40;3.00;;;;;;;;;;83485;275;3031195;-38
2023/06/30 15:14:14;;;;;;;4.20;3.00;;;;;;;;;;84253;275;3010973;-37
2023/06/30 15:16:49;;;;;;;4.40;3.20;;;;;;;;;;83470;271;3028329;-37
2023/06/30 15:19:29;;;;;;;4.30;3.00;;;;;;;;;;83499;271;3026892;-38
2023/06/30 15:22:05;;;;;;;4.80;3.30;;;;;;;;;;83452;275;3031059;-38
2023/06/30 15:24:40;;;;;;;4.10;3.10;;;;;;;;;;84233;275;3011152;-38
2023/06/30 15:27:20;;;;;;;4.80;3.20;;;;;;;;;;83483;275;3031628;-38
2023/06/30 15:29:56;;;;;;;4.10;3.00;;;;;;;;;;83482;268;3028276;-38
2023/06/30 15:32:34;;;;;;;4.50;3.00;;;;;;;;;;84236;275;3011386;-38